Time;durP1;ratioP1;P1;durP2;ratioP2;P2;SDS_P1;SDS_P2;PMS_P1;PMS_P2;Temp;Humidity;BMP_temperature;BMP_pressure;BME280_temperature;BME280_humidity;BME280_pressure;Samples;Min_cycle;Max_cycle;Signal;HPM_P1;HPM_P2
2022/03/21 00:00:12;;;;;;;14.43;10.73;;;;;;;10.86;39.54;100141.31;7032280;28;20208;-82
2022/03/21 00:03:34;;;;;;;17.17;9.87;;;;;;;10.63;39.32;100078.34;7032479;28;20213;-80
2022/03/21 00:06:56;;;;;;;14.27;10.67;;;;;;;10.71;39.09;100141.19;7031872;28;20232;-81
2022/03/21 00:10:18;;;;;;;16.37;10.83;;;;;;;10.37;39.75;100129.81;7031684;28;20387;-81
2022/03/21 00:13:39;;;;;;;12.30;9.70;;;;;;;10.62;39.16;100119.81;7030770;28;20244;-80
2022/03/21 00:17:03;;;;;;;18.77;10.30;;;;;;;10.28;39.31;100094.94;7031817;28;20225;-80
2022/03/21 00:20:25;;;;;;;14.43;10.70;;;;;;;10.21;39.99;100134.41;7032286;28;20204;-81
2022/03/21 00:23:48;;;;;;;13.07;10.33;;;;;;;10.27;39.74;100129.13;7032321;28;20579;-81
2022/03/21 00:27:12;;;;;;;12.30;10.33;;;;;;;10.27;40.28;100139.94;7031490;28;20217;-80
2022/03/21 00:30:35;;;;;;;14.00;10.83;;;;;;;10.18;40.05;100126.63;7032431;28;20301;-80
2022/03/21 00:33:58;;;;;;;14.40;10.07;;;;;;;10.15;40.32;100129.69;7032341;28;20217;-81
2022/03/21 00:37:19;;;;;;;13.17;10.07;;;;;;;10.40;39.76;100123.22;7031866;28;20275;-80
2022/03/21 00:40:42;;;;;;;13.77;10.40;;;;;;;9.94;40.57;100113.16;7032591;28;20220;-81
2022/03/21 00:44:03;;;;;;;12.20;10.40;;;;;;;9.17;42.65;100137.78;7032331;28;20197;-80
2022/03/21 00:47:25;;;;;;;12.93;9.83;;;;;;;9.19;42.51;100138.47;7031015;28;20224;-81
2022/03/21 00:50:48;;;;;;;15.77;11.10;;;;;;;9.15;42.73;100136.28;7031532;28;20776;-80
2022/03/21 00:54:09;;;;;;;12.00;9.77;;;;;;;9.10;43.41;100135.94;7030108;28;20288;-81
2022/03/21 00:57:31;;;;;;;14.07;10.60;;;;;;;9.40;42.54;100109.25;7029616;28;20236;-81
2022/03/21 01:00:53;;;;;;;10.90;9.20;;;;;;;9.31;41.78;100075.28;7029852;28;20208;-80
2022/03/21 01:04:14;;;;;;;13.00;9.37;;;;;;;9.55;41.43;100139.91;7030459;28;20205;-80
2022/03/21 01:07:38;;;;;;;13.50;10.50;;;;;;;9.47;41.71;100133.66;7029436;28;20354;-80
2022/03/21 01:11:00;;;;;;;13.87;10.90;;;;;;;9.41;41.50;100131.63;7030231;28;20372;-80
2022/03/21 01:14:22;;;;;;;13.13;9.23;;;;;;;9.02;42.28;100138.56;7028866;28;20212;-80
2022/03/21 01:17:44;;;;;;;13.17;9.30;;;;;;;9.39;41.18;100144.44;7029681;28;20225;-80
2022/03/21 01:21:06;;;;;;;11.07;9.63;;;;;;;9.17;42.28;100137.78;7031828;28;20254;-81
2022/03/21 01:24:29;;;;;;;12.17;9.13;;;;;;;9.50;41.45;100138.72;7031460;28;20201;-80
2022/03/21 01:27:50;;;;;;;12.93;10.07;;;;;;;9.42;41.44;100131.47;7030934;28;20225;-80
2022/03/21 01:31:12;;;;;;;12.87;9.30;;;;;;;9.54;40.84;100142.75;7030763;28;20239;-80
2022/03/21 01:34:33;;;;;;;12.00;9.20;;;;;;;9.61;40.71;100143.75;7030574;28;20212;-80
2022/03/21 01:37:55;;;;;;;10.33;9.20;;;;;;;9.42;41.49;100144.09;7030332;28;20282;-80
2022/03/21 01:41:18;;;;;;;14.53;9.50;;;;;;;9.03;42.52;100148.38;7033394;28;20208;-81
2022/03/21 01:44:40;;;;;;;16.27;10.10;;;;;;;8.67;42.68;100090.38;7035927;28;20262;-80
2022/03/21 01:48:03;;;;;;;13.30;9.27;;;;;;;9.11;42.67;100151.06;7032798;28;20370;-83
2022/03/21 01:51:26;;;;;;;11.20;9.10;;;;;;;9.22;42.06;100156.16;7033324;28;20229;-82
2022/03/21 01:58:30;;;;;;;12.80;9.87;;;;;;;8.72;42.73;100144.50;7033077;28;20224;-82
2022/03/21 02:01:51;;;;;;;12.80;9.37;;;;;;;8.31;43.62;100156.03;7036894;28;20197;-83
2022/03/21 02:05:16;;;;;;;13.30;9.10;;;;;;;8.30;44.03;100156.22;7037145;28;20199;-83
2022/03/21 02:08:40;;;;;;;13.23;9.73;;;;;;;8.26;44.01;100160.22;7036001;28;20225;-82
2022/03/21 02:12:06;;;;;;;14.30;9.83;;;;;;;8.31;43.94;100166.78;7035972;28;20224;-82
2022/03/21 02:15:29;;;;;;;11.37;9.97;;;;;;;8.56;43.84;100157.03;7029869;28;20224;-81
2022/03/21 02:18:50;;;;;;;16.33;9.43;;;;;;;8.88;42.10;100154.50;7033706;28;20221;-82
2022/03/21 02:22:24;;;;;;;12.37;9.80;;;;;;;8.35;43.12;100156.56;7036530;28;20212;-82
2022/03/21 02:25:48;;;;;;;13.77;10.17;;;;;;;8.22;43.19;100115.84;7036006;28;20205;-82
2022/03/21 02:29:09;;;;;;;12.40;9.67;;;;;;;8.51;43.17;100172.78;7038087;28;20230;-82
2022/03/21 02:33:10;;;;;;;14.43;9.30;;;;;;;8.15;43.32;100125.50;7040532;28;20214;-82
2022/03/21 02:36:38;;;;;;;12.53;9.50;;;;;;;7.87;44.67;100167.75;7038747;28;20249;-81
2022/03/21 02:40:00;;;;;;;11.83;9.37;;;;;;;8.17;44.28;100167.34;7038235;28;20204;-81
2022/03/21 02:43:23;;;;;;;11.13;9.37;;;;;;;7.84;44.68;100143.91;7039665;28;20205;-82
2022/03/21 02:46:45;;;;;;;13.43;10.00;;;;;;;8.26;44.03;100147.59;7042422;28;20334;-81
2022/03/21 02:50:10;;;;;;;13.53;11.00;;;;;;;8.42;43.82;100173.75;7040656;28;20224;-82
2022/03/21 02:57:49;;;;;;;13.93;9.67;;;;;;;8.63;42.16;100167.00;7040855;28;20221;-83
2022/03/21 03:01:22;;;;;;;11.97;9.20;;;;;;;8.27;43.29;100169.94;7042404;28;20208;-86
2022/03/21 03:04:53;;;;;;;11.70;9.97;;;;;;;7.99;44.00;100177.25;7041137;28;20217;-83
2022/03/21 03:08:14;;;;;;;11.70;8.77;;;;;;;8.08;43.06;100159.38;7041212;28;20220;-82
2022/03/21 03:11:37;;;;;;;14.97;9.50;;;;;;;8.03;42.94;100170.59;7041601;28;20221;-82
2022/03/21 03:14:58;;;;;;;11.53;9.53;;;;;;;7.84;44.24;100189.53;7040678;28;20210;-82
2022/03/21 03:18:21;;;;;;;16.60;10.77;;;;;;;7.76;44.79;100188.63;7036662;28;20248;-84
2022/03/21 03:21:45;;;;;;;13.53;9.50;;;;;;;7.47;44.39;100174.56;7033904;28;20742;-84
2022/03/21 03:25:08;;;;;;;12.57;9.20;;;;;;;7.56;44.46;100182.59;7035123;28;20216;-84
2022/03/21 03:28:31;;;;;;;17.47;10.60;;;;;;;6.77;46.46;100186.00;7036605;28;20228;-84
2022/03/21 03:31:53;;;;;;;13.13;9.57;;;;;;;7.36;45.47;100175.66;7038317;28;20248;-85
2022/03/21 03:35:16;;;;;;;12.57;9.47;;;;;;;7.75;44.84;100187.78;7037275;28;20294;-84
2022/03/21 03:38:38;;;;;;;13.53;9.57;;;;;;;8.11;43.40;100196.66;7036270;28;20264;-84
2022/03/21 03:41:59;;;;;;;13.60;10.40;;;;;;;7.51;43.85;100119.63;7036898;28;20209;-85
2022/03/21 03:45:21;;;;;;;12.77;10.43;;;;;;;8.17;43.48;100210.31;7035281;28;20658;-84
2022/03/21 03:48:43;;;;;;;13.20;9.77;;;;;;;7.83;43.84;100208.50;7035040;28;20233;-86
2022/03/21 03:52:07;;;;;;;14.97;8.67;;;;;;;7.77;44.42;100199.22;7036072;28;20337;-85
2022/03/21 03:55:28;;;;;;;12.27;9.07;;;;;;;7.65;44.25;100208.50;7036936;28;20247;-84
2022/03/21 03:58:50;;;;;;;13.33;9.70;;;;;;;7.51;44.86;100213.53;7039387;28;20236;-82
2022/03/21 04:02:12;;;;;;;12.83;9.13;;;;;;;7.75;44.20;100173.50;7040091;28;20658;-82
2022/03/21 04:05:34;;;;;;;13.23;9.43;;;;;;;7.34;43.11;100107.03;7039361;28;20201;-82
2022/03/21 04:08:58;;;;;;;12.53;9.70;;;;;;;7.71;43.85;100186.41;7038729;28;20225;-82
2022/03/21 04:12:20;;;;;;;11.77;9.93;;;;;;;7.68;44.53;100205.53;7039629;28;20236;-83
2022/03/21 04:15:42;;;;;;;10.83;9.43;;;;;;;7.78;43.68;100210.81;7042787;28;20201;-83
2022/03/21 04:19:03;;;;;;;12.40;9.67;;;;;;;7.96;42.84;100207.09;7042765;28;20225;-83
2022/03/21 04:22:25;;;;;;;13.73;9.53;;;;;;;7.88;43.16;100216.94;7042991;28;20208;-83
2022/03/21 04:25:48;;;;;;;11.50;9.27;;;;;;;7.88;43.41;100220.47;7043838;28;20208;-83
2022/03/21 04:29:21;;;;;;;12.70;9.43;;;;;;;7.52;43.67;100213.41;7044729;28;20237;-83
2022/03/21 04:32:44;;;;;;;12.60;8.83;;;;;;;7.36;44.25;100217.75;7042651;28;20232;-83
2022/03/21 04:37:14;;;;;;;;;;;;;;;;;;;;;
2022/03/21 04:44:52;;;;;;;12.30;9.30;;;;;;;7.17;43.66;100228.56;7040793;28;20284;-83
2022/03/21 04:52:10;;;;;;;13.90;9.97;;;;;;;6.56;44.35;100134.47;7036324;28;20227;-84
2022/03/21 04:55:32;;;;;;;14.30;10.33;;;;;;;6.94;44.89;100225.44;7035489;28;20250;-85
2022/03/21 04:58:54;;;;;;;13.53;9.37;;;;;;;7.11;44.48;100224.66;7030455;28;20247;-85
2022/03/21 05:02:16;;;;;;;12.43;9.10;;;;;;;7.82;42.12;100222.91;7029833;28;20201;-85
2022/03/21 05:05:39;;;;;;;12.40;9.83;;;;;;;7.92;42.04;100218.31;7029157;28;20205;-85
2022/03/21 05:09:04;;;;;;;14.57;10.30;;;;;;;7.44;43.17;100213.31;7038717;28;20285;-82
2022/03/21 05:12:26;;;;;;;17.57;9.50;;;;;;;7.39;43.69;100231.72;7036753;28;20226;-85
2022/03/21 05:16:07;;;;;;;13.93;9.90;;;;;;;7.86;42.84;100235.03;7036373;28;20201;-84
2022/03/21 05:19:30;;;;;;;12.90;9.87;;;;;;;7.16;43.69;100224.19;7035638;28;20221;-83
2022/03/21 05:41:56;;;;;;;14.83;10.50;;;;;;;7.46;43.91;100265.00;7033016;28;20215;-87
2022/03/21 05:45:19;;;;;;;15.57;11.27;;;;;;;7.33;43.93;100267.19;7029757;28;20206;-85
2022/03/21 05:52:40;;;;;;;16.10;10.03;;;;;;;7.75;42.71;100271.03;7009518;28;20224;-82
2022/03/21 05:56:05;;;;;;;15.67;10.57;;;;;;;7.66;43.11;100276.47;7031498;28;20522;-85
2022/03/21 06:03:04;;;;;;;13.23;10.20;;;;;;;7.76;42.41;100267.34;7006732;28;20566;-82
2022/03/21 06:06:26;;;;;;;15.43;10.13;;;;;;;8.28;40.90;100258.47;7033571;28;20310;-82
2022/03/21 06:10:01;;;;;;;11.27;9.77;;;;;;;8.29;41.56;100260.16;7040149;28;20213;-86
2022/03/21 06:13:27;;;;;;;10.13;9.07;;;;;;;8.20;42.13;100257.56;7042339;28;20177;-85
2022/03/21 06:17:00;;;;;;;16.00;9.93;;;;;;;8.20;42.15;100266.44;7042827;28;20235;-85
2022/03/21 06:29:42;;;;;;;12.30;9.43;;;;;;;9.13;40.84;100279.06;6830981;29;20229;-84
2022/03/21 06:33:31;;;;;;;12.43;9.60;;;;;;;9.26;40.45;100290.22;6909158;28;20225;-86
2022/03/21 06:36:53;;;;;;;17.20;9.77;;;;;;;9.48;40.13;100280.72;7010818;28;20252;-84
2022/03/21 06:40:15;;;;;;;15.00;11.03;;;;;;;9.69;39.25;100263.13;7011774;28;20672;-84
2022/03/21 06:43:37;;;;;;;16.10;12.10;;;;;;;9.79;38.64;100195.63;7039221;28;20208;-84
2022/03/21 06:46:58;;;;;;;13.93;9.83;;;;;;;10.49;38.52;100276.75;7040941;28;20260;-84
2022/03/21 06:50:21;;;;;;;11.57;9.03;;;;;;;10.21;39.00;100266.47;7041664;28;20289;-83
2022/03/21 06:53:43;;;;;;;14.13;10.10;;;;;;;10.62;38.54;100273.53;7040717;28;20197;-84
2022/03/21 06:57:06;;;;;;;10.87;9.00;;;;;;;10.50;38.87;100272.19;7037941;28;20314;-84
2022/03/21 07:00:27;;;;;;;13.20;9.83;;;;;;;10.66;38.14;100261.38;7038424;28;20762;-84
2022/03/21 07:03:49;;;;;;;14.70;10.03;;;;;;;10.92;38.08;100213.47;7040846;28;20636;-84
2022/03/21 07:07:12;;;;;;;13.60;10.50;;;;;;;11.42;37.30;100301.19;7034758;28;20225;-81
2022/03/21 07:10:35;;;;;;;12.80;9.70;;;;;;;11.95;36.26;100289.66;7040335;28;20727;-79
2022/03/21 07:13:56;;;;;;;9.97;8.47;;;;;;;12.63;33.22;100295.94;7038571;28;20201;-79
2022/03/21 07:17:19;;;;;;;12.77;9.80;;;;;;;12.93;30.57;100298.50;7037173;28;20231;-79
2022/03/21 07:20:43;;;;;;;11.50;9.83;;;;;;;12.34;30.95;100307.47;7038591;28;20662;-80
2022/03/21 07:24:07;;;;;;;11.47;9.07;;;;;;;13.18;30.59;100302.72;7021568;28;20228;-80
2022/03/21 07:27:29;;;;;;;11.10;8.83;;;;;;;12.19;30.33;100275.97;7016238;28;20213;-80
2022/03/21 07:30:51;;;;;;;11.60;9.70;;;;;;;12.84;30.85;100293.38;7011753;28;20226;-80
2022/03/21 07:34:14;;;;;;;11.13;8.77;;;;;;;13.11;30.00;100312.56;7008330;28;20845;-81
2022/03/21 07:37:40;;;;;;;10.80;8.77;;;;;;;12.66;30.44;100296.41;7020752;28;20235;-80
2022/03/21 07:41:05;;;;;;;11.80;9.33;;;;;;;13.04;30.17;100318.94;7036142;28;20639;-80
2022/03/21 07:48:08;;;;;;;10.60;8.90;;;;;;;13.00;31.38;100318.47;7034352;28;20217;-80
2022/03/21 07:51:30;;;;;;;11.60;8.90;;;;;;;13.04;30.41;100300.00;7035318;28;20258;-80
2022/03/21 07:54:53;;;;;;;11.63;9.23;;;;;;;14.18;28.16;100300.09;7037094;28;20210;-80
2022/03/21 07:58:16;;;;;;;11.33;9.70;;;;;;;14.71;28.28;100264.31;7031217;28;20225;-80
2022/03/21 08:01:38;;;;;;;11.53;9.23;;;;;;;14.24;28.45;100293.91;7031937;28;20212;-81
2022/03/21 08:05:01;;;;;;;12.53;10.80;;;;;;;13.78;28.79;100302.50;7030671;28;20203;-80
2022/03/21 08:08:22;;;;;;;13.13;9.60;;;;;;;15.04;27.68;100295.28;7029679;28;20233;-79
2022/03/21 08:11:45;;;;;;;10.73;8.83;;;;;;;15.83;27.82;100304.78;7030483;28;20235;-80
2022/03/21 08:15:11;;;;;;;10.40;9.10;;;;;;;15.79;27.70;100315.22;7032098;28;20201;-80
2022/03/21 08:18:32;;;;;;;11.30;9.00;;;;;;;15.96;26.68;100302.97;7030298;28;20213;-80
2022/03/21 08:21:54;;;;;;;11.30;9.60;;;;;;;15.49;26.63;100245.00;7029960;28;20572;-80
2022/03/21 08:25:16;;;;;;;13.33;9.83;;;;;;;16.72;25.64;100308.00;7006297;28;20215;-81
2022/03/21 08:28:38;;;;;;;10.73;9.07;;;;;;;15.85;26.68;100308.97;7002787;28;20276;-80
2022/03/21 08:32:01;;;;;;;12.43;9.27;;;;;;;15.32;28.25;100306.13;7002352;28;20326;-81
2022/03/21 08:35:22;;;;;;;12.90;9.20;;;;;;;15.39;27.65;100302.44;7002924;28;20305;-79
2022/03/21 08:38:44;;;;;;;12.00;9.07;;;;;;;15.92;27.51;100233.66;7003296;28;20313;-82
2022/03/21 08:42:06;;;;;;;10.63;8.40;;;;;;;16.21;27.18;100295.09;7002299;28;20206;-79
2022/03/21 08:45:28;;;;;;;14.43;10.03;;;;;;;16.32;27.18;100302.66;7013621;28;20238;-80
2022/03/21 08:52:30;;;;;;;11.37;9.63;;;;;;;16.36;27.16;100293.03;7004757;28;20213;-80
2022/03/21 08:55:52;;;;;;;11.93;9.87;;;;;;;16.66;26.77;100297.09;7027095;28;20233;-80
2022/03/21 08:59:13;;;;;;;11.27;9.13;;;;;;;16.81;26.43;100249.53;7027776;28;20256;-80
2022/03/21 09:02:35;;;;;;;12.70;9.67;;;;;;;16.27;27.10;100294.28;7027712;28;20236;-80
2022/03/21 09:05:58;;;;;;;14.90;10.50;;;;;;;16.52;27.03;100301.69;7025748;28;20235;-80
2022/03/21 09:09:20;;;;;;;12.13;10.57;;;;;;;16.64;26.67;100291.84;7005015;28;20690;-79
2022/03/21 09:12:43;;;;;;;12.43;9.80;;;;;;;16.85;26.79;100298.97;6999350;28;20226;-80
2022/03/21 09:16:05;;;;;;;12.57;9.60;;;;;;;17.20;26.66;100290.38;6999148;28;20692;-80
2022/03/21 09:19:29;;;;;;;12.13;10.20;;;;;;;17.48;26.08;100280.09;6999705;28;20236;-81
2022/03/21 09:22:51;;;;;;;11.60;10.37;;;;;;;16.66;26.82;100297.09;6999229;28;20205;-80
2022/03/21 09:26:13;;;;;;;13.73;10.47;;;;;;;17.28;26.49;100290.16;6998576;28;20248;-80
2022/03/21 09:29:35;;;;;;;12.70;10.87;;;;;;;17.53;26.29;100238.53;7000101;28;20729;-80
2022/03/21 09:32:56;;;;;;;10.67;9.57;;;;;;;17.96;25.47;100229.53;6999005;28;20222;-80
2022/03/21 09:36:18;;;;;;;12.80;10.57;;;;;;;18.43;25.32;100285.56;6997759;28;20252;-80
2022/03/21 09:39:41;;;;;;;13.27;9.80;;;;;;;17.97;24.62;100277.59;6998805;28;20214;-80
2022/03/21 09:43:03;;;;;;;11.40;9.90;;;;;;;17.53;25.40;100274.84;6999484;28;20202;-80
2022/03/21 09:46:25;;;;;;;11.37;9.87;;;;;;;17.78;25.21;100209.47;6997578;28;20209;-80
2022/03/21 09:49:47;;;;;;;12.63;10.13;;;;;;;18.15;25.60;100277.72;7034974;28;20661;-80
2022/03/21 09:53:09;;;;;;;10.90;9.80;;;;;;;18.53;24.72;100267.66;7028205;28;20282;-80
2022/03/21 09:56:32;;;;;;;10.77;9.67;;;;;;;18.71;25.17;100272.34;7025717;28;20567;-80
2022/03/21 09:59:57;;;;;;;12.90;10.90;;;;;;;17.95;24.91;100266.09;7027546;28;20201;-81
2022/03/21 10:03:18;;;;;;;16.97;12.03;;;;;;;18.81;26.40;100270.78;7027910;28;20669;-79
2022/03/21 10:06:41;;;;;;;12.93;10.77;;;;;;;19.27;24.68;100267.69;7017659;28;20249;-79
2022/03/21 10:10:07;;;;;;;12.20;10.90;;;;;;;18.68;24.32;100251.78;7028048;28;20287;-79
2022/03/21 10:13:31;;;;;;;13.80;11.57;;;;;;;18.14;25.40;100270.59;7027606;28;20358;-79
2022/03/21 10:16:54;;;;;;;14.87;11.93;;;;;;;18.71;24.55;100266.88;7025249;28;20221;-79
2022/03/21 10:20:32;;;;;;;13.03;11.40;;;;;;;19.15;23.72;100258.50;7026318;28;20201;-79
2022/03/21 10:24:06;;;;;;;12.77;10.67;;;;;;;19.61;24.21;100269.84;7026979;28;20714;-79
2022/03/21 10:27:29;;;;;;;14.03;12.27;;;;;;;19.18;24.73;100261.66;7026035;28;20685;-78
2022/03/21 10:30:52;;;;;;;14.87;10.93;;;;;;;19.35;23.69;100256.47;7027019;28;20212;-79
2022/03/21 10:34:16;;;;;;;17.83;13.30;;;;;;;20.43;23.44;100262.69;7025487;28;20201;-79
2022/03/21 10:37:58;;;;;;;15.23;12.20;;;;;;;20.19;21.56;100249.13;7026786;28;20237;-79
2022/03/21 10:41:33;;;;;;;15.47;12.23;;;;;;;18.00;23.88;100259.97;7027087;28;20222;-79
2022/03/21 10:44:58;;;;;;;15.40;12.60;;;;;;;18.13;24.03;100248.97;7026754;28;20186;-79
2022/03/21 10:48:23;;;;;;;13.23;11.80;;;;;;;19.09;23.07;100243.84;7020853;28;20229;-79
2022/03/21 10:51:51;;;;;;;14.10;11.53;;;;;;;18.16;24.54;100249.38;7039615;28;20235;-79
2022/03/21 10:55:21;;;;;;;15.50;12.23;;;;;;;19.32;22.87;100241.34;7055599;28;20196;-79
2022/03/21 10:58:44;;;;;;;16.17;11.97;;;;;;;19.72;21.89;100255.41;7054673;28;20633;-80
2022/03/21 11:02:17;;;;;;;16.30;12.27;;;;;;;18.99;22.51;100250.91;7053037;28;20203;-79
2022/03/21 11:05:41;;;;;;;15.97;12.00;;;;;;;19.23;22.52;100239.94;7051860;28;20204;-80
2022/03/21 11:09:03;;;;;;;16.90;11.87;;;;;;;18.88;23.16;100244.22;7043543;28;20217;-79
2022/03/21 11:12:24;;;;;;;14.10;11.20;;;;;;;19.16;22.46;100241.88;7026952;28;20234;-80
2022/03/21 11:15:47;;;;;;;13.27;11.63;;;;;;;19.17;23.06;100237.25;7001491;28;20206;-81
2022/03/21 11:19:08;;;;;;;14.13;11.10;;;;;;;19.22;22.18;100226.50;6995244;28;20222;-79
2022/03/21 11:22:33;;;;;;;17.13;11.23;;;;;;;20.20;20.42;100229.72;6995638;28;20261;-79
2022/03/21 11:25:57;;;;;;;13.77;11.23;;;;;;;19.81;22.12;100237.59;7016628;28;20201;-79
2022/03/21 11:29:30;;;;;;;13.70;11.40;;;;;;;20.08;21.04;100219.78;7024485;28;20232;-79
2022/03/21 11:32:55;;;;;;;12.20;10.67;;;;;;;21.54;20.53;100226.78;7028841;28;20831;-80
2022/03/21 11:36:17;;;;;;;11.63;10.37;;;;;;;22.16;19.74;100211.34;7027815;28;20220;-79
2022/03/21 11:39:40;;;;;;;13.03;10.87;;;;;;;21.99;19.03;100204.94;7028634;28;20208;-80
2022/03/21 11:43:26;;;;;;;13.07;10.73;;;;;;;22.18;19.01;100214.69;7025146;28;20342;-80
2022/03/21 11:46:47;;;;;;;11.53;10.00;;;;;;;21.63;19.19;100214.38;7023746;28;20250;-79
2022/03/21 11:50:25;;;;;;;11.87;10.43;;;;;;;22.21;19.33;100204.03;7034605;28;20276;-77
2022/03/21 11:53:49;;;;;;;12.80;10.07;;;;;;;20.83;20.02;100206.16;7027871;28;20230;-79
2022/03/21 11:57:26;;;;;;;11.50;9.50;;;;;;;21.29;20.33;100195.19;7027643;28;20222;-77
2022/03/21 12:01:03;;;;;;;12.50;9.97;;;;;;;21.85;19.07;100190.69;7035509;28;20184;-78
2022/03/21 12:04:29;;;;;;;12.00;10.07;;;;;;;21.59;18.66;100196.69;7037557;28;20693;-77
2022/03/21 12:07:51;;;;;;;13.70;10.60;;;;;;;20.56;20.08;100191.22;7027458;28;20236;-78
2022/03/21 12:11:50;;;;;;;11.87;9.57;;;;;;;21.97;20.25;100183.25;7027484;28;20212;-77
2022/03/21 12:15:16;;;;;;;11.73;9.90;;;;;;;22.96;19.06;100175.09;7028127;28;20201;-78
2022/03/21 12:18:58;;;;;;;15.30;10.37;;;;;;;22.11;19.19;100150.78;7027949;28;20227;-78
2022/03/21 12:22:40;;;;;;;12.17;9.27;;;;;;;21.58;19.33;100148.38;7027409;28;20208;-77
2022/03/21 12:26:03;;;;;;;14.10;9.10;;;;;;;21.29;20.03;100145.81;7026807;28;20631;-78
2022/03/21 12:29:36;;;;;;;12.70;10.07;;;;;;;21.19;21.87;100157.41;7026844;28;20230;-78
2022/03/21 12:33:00;;;;;;;11.73;8.43;;;;;;;22.35;19.13;100153.16;7027097;28;20250;-77
2022/03/21 12:36:31;;;;;;;10.37;8.20;;;;;;;22.42;19.81;100142.84;7025867;28;20245;-78
2022/03/21 12:39:55;;;;;;;12.33;8.20;;;;;;;22.74;18.70;100145.88;7026097;28;20205;-78
2022/03/21 12:43:18;;;;;;;13.03;8.20;;;;;;;21.75;19.93;100140.22;7026343;28;20212;-77
2022/03/21 12:46:40;;;;;;;12.17;7.77;;;;;;;22.03;19.06;100149.31;7026528;28;20240;-78
2022/03/21 12:50:06;;;;;;;10.47;6.80;;;;;;;21.31;19.89;100140.94;7026145;28;20212;-78
2022/03/21 12:53:44;;;;;;;13.73;8.47;;;;;;;21.91;20.31;100148.53;7025470;28;20252;-80
2022/03/21 12:57:06;;;;;;;11.33;7.57;;;;;;;22.14;20.35;100131.09;7026894;28;20232;-80
2022/03/21 13:00:31;;;;;;;11.77;7.07;;;;;;;22.67;19.79;100129.53;7021881;28;20201;-79
2022/03/21 13:03:57;;;;;;;16.97;7.83;;;;;;;22.55;20.48;100122.47;6999201;28;20206;-78
2022/03/21 13:11:05;;;;;;;14.63;7.97;;;;;;;23.33;19.29;100128.59;7005770;28;21136;-78
2022/03/21 13:14:28;;;;;;;10.77;8.17;;;;;;;23.07;20.53;100116.38;6997390;28;20254;-78
2022/03/21 13:17:51;;;;;;;15.90;8.70;;;;;;;22.77;20.22;100098.63;6989255;28;20262;-78
2022/03/21 13:21:13;;;;;;;10.13;8.10;;;;;;;22.84;20.16;100107.53;7022016;28;20203;-78
2022/03/21 13:24:38;;;;;;;13.60;10.07;;;;;;;22.50;19.71;100131.47;7024277;28;20586;-78
2022/03/21 13:28:19;;;;;;;13.73;9.57;;;;;;;22.29;20.70;100112.94;6996446;28;20230;-77
2022/03/21 13:31:45;;;;;;;10.83;9.20;;;;;;;21.85;21.02;100119.31;6996869;28;20249;-78
2022/03/21 13:35:07;;;;;;;12.67;9.37;;;;;;;21.00;21.62;100091.13;7020663;28;20215;-78
2022/03/21 13:38:31;;;;;;;13.00;8.33;;;;;;;21.64;20.53;100114.44;7024703;28;20317;-78
2022/03/21 13:41:56;;;;;;;12.63;9.20;;;;;;;21.60;21.11;100106.97;7025687;28;20213;-79
2022/03/21 13:45:18;;;;;;;14.37;9.53;;;;;;;21.74;20.95;100105.59;7025322;28;20215;-78
2022/03/21 13:48:41;;;;;;;10.70;9.03;;;;;;;22.62;20.50;100110.22;7025398;28;20261;-78
2022/03/21 13:52:03;;;;;;;15.30;8.63;;;;;;;23.15;19.90;100098.59;7024014;28;20256;-78
2022/03/21 13:55:38;;;;;;;13.07;8.80;;;;;;;23.07;20.16;100097.13;7024509;28;20213;-78
2022/03/21 13:59:12;;;;;;;13.90;10.77;;;;;;;23.09;21.26;100099.63;7026211;28;20223;-79
2022/03/21 14:02:41;;;;;;;180.70;91.27;;;;;;;22.29;20.99;100092.84;7024971;28;20216;-79
2022/03/21 14:06:04;;;;;;;16.90;12.03;;;;;;;23.03;20.70;100096.00;7024304;28;20243;-79
2022/03/21 14:09:26;;;;;;;17.53;9.77;;;;;;;22.24;20.22;100035.91;7024329;28;20697;-79
2022/03/21 14:12:50;;;;;;;12.30;8.57;;;;;;;22.00;20.55;100078.34;7024669;28;20236;-79
2022/03/21 14:16:13;;;;;;;13.17;9.40;;;;;;;21.99;20.35;100031.91;7024949;28;20216;-82
2022/03/21 14:19:35;;;;;;;15.00;8.97;;;;;;;21.58;20.89;100081.66;7026041;28;20588;-79
2022/03/21 14:22:57;;;;;;;13.70;8.70;;;;;;;21.69;21.88;100062.41;7028019;28;20206;-79
2022/03/21 14:26:33;;;;;;;15.27;9.77;;;;;;;22.75;20.74;100049.38;7023964;28;20201;-78
2022/03/21 14:29:54;;;;;;;14.40;9.20;;;;;;;22.32;20.55;100071.22;7024092;28;20290;-79
2022/03/21 14:33:17;;;;;;;12.97;8.93;;;;;;;22.44;20.90;100030.78;7025608;28;20379;-79
2022/03/21 14:36:39;;;;;;;12.27;8.43;;;;;;;22.80;21.13;100068.69;7025257;28;20245;-79
2022/03/21 14:40:01;;;;;;;14.00;9.57;;;;;;;21.93;20.86;100041.97;7026669;28;20234;-79
2022/03/21 14:43:25;;;;;;;11.80;8.83;;;;;;;21.85;21.00;100060.78;7026672;28;20247;-78
2022/03/21 14:46:47;;;;;;;17.73;8.90;;;;;;;22.12;21.02;100065.38;7026408;28;20226;-78
2022/03/21 14:50:10;;;;;;;10.40;8.10;;;;;;;22.82;20.78;100044.50;7026010;28;20207;-78
2022/03/21 14:53:33;;;;;;;12.63;8.50;;;;;;;22.77;19.84;100062.88;7047286;28;20267;-78
2022/03/21 14:56:56;;;;;;;13.47;8.30;;;;;;;22.71;19.63;100064.69;7039531;28;20227;-78
2022/03/21 15:00:18;;;;;;;10.77;8.37;;;;;;;22.73;20.84;100029.53;7027703;28;20312;-79
2022/03/21 15:03:40;;;;;;;10.10;7.60;;;;;;;22.38;20.48;100051.00;7029552;28;20202;-79
2022/03/21 15:07:04;;;;;;;12.30;8.10;;;;;;;21.51;20.76;100050.78;7033442;28;20254;-79
2022/03/21 15:10:26;;;;;;;13.87;8.70;;;;;;;22.08;21.26;100039.47;7030833;28;20573;-80
2022/03/21 15:13:48;;;;;;;12.30;8.00;;;;;;;22.42;20.44;100046.63;7005024;28;20239;-79
2022/03/21 15:17:09;;;;;;;15.30;8.53;;;;;;;21.81;21.23;100051.38;7006159;28;20233;-80
2022/03/21 15:20:31;;;;;;;8.90;7.30;;;;;;;22.03;21.79;100046.81;7015275;28;20648;-79
2022/03/21 15:23:54;;;;;;;14.83;8.40;;;;;;;21.83;21.03;100027.25;7033446;28;20641;-79
2022/03/21 15:27:15;;;;;;;12.40;8.23;;;;;;;21.32;21.70;100035.59;7032830;28;20221;-79
2022/03/21 15:30:37;;;;;;;10.60;8.10;;;;;;;21.25;22.51;100032.16;7032459;28;20298;-79
2022/03/21 15:33:58;;;;;;;14.77;7.40;;;;;;;21.30;22.30;99936.22;7033268;28;20258;-80
2022/03/21 15:44:40;;;;;;;10.97;6.97;;;;;;;21.80;20.84;100041.47;7029404;28;20628;-79
2022/03/21 15:48:02;;;;;;;11.53;7.43;;;;;;;22.04;20.45;100046.56;7031114;28;20250;-79
2022/03/21 15:51:23;;;;;;;12.20;7.63;;;;;;;21.70;20.17;100011.91;7031871;28;20204;-80
2022/03/21 15:54:45;;;;;;;8.47;6.87;;;;;;;21.39;20.89;100036.25;7032385;28;20222;-79
2022/03/21 15:58:08;;;;;;;9.97;7.40;;;;;;;21.06;21.93;100043.53;7031526;28;20242;-79
2022/03/21 16:01:30;;;;;;;10.73;6.97;;;;;;;21.10;22.16;100040.06;7032499;28;20213;-79
2022/03/21 16:04:51;;;;;;;10.23;6.87;;;;;;;21.32;21.50;100043.81;7032208;28;20239;-79
2022/03/21 16:08:13;;;;;;;10.40;6.40;;;;;;;21.28;21.60;100037.13;7027483;28;20595;-79
2022/03/21 16:11:34;;;;;;;18.27;7.97;;;;;;;21.13;21.54;100044.22;7031288;28;20255;-79
2022/03/21 16:14:59;;;;;;;11.40;7.20;;;;;;;20.35;22.68;100045.75;7030482;28;20249;-79
2022/03/21 16:18:21;;;;;;;14.03;7.30;;;;;;;20.27;22.40;100044.19;7028280;28;20223;-79
2022/03/21 16:21:42;;;;;;;10.00;7.13;;;;;;;20.06;22.95;100054.84;7003586;28;20202;-79
2022/03/21 16:25:04;;;;;;;13.27;7.93;;;;;;;20.57;22.25;100022.16;7027484;28;20216;-79
2022/03/21 16:28:26;;;;;;;11.53;7.30;;;;;;;20.21;23.16;100047.03;7027914;28;20305;-79
2022/03/21 16:31:49;;;;;;;11.13;7.83;;;;;;;19.92;23.73;100053.41;7026368;28;20556;-79
2022/03/21 16:35:12;;;;;;;11.47;7.47;;;;;;;20.42;23.09;100050.03;7028556;28;20649;-79
2022/03/21 16:38:34;;;;;;;10.43;7.53;;;;;;;20.41;23.08;100061.22;7025907;28;20446;-78
2022/03/21 16:41:55;;;;;;;10.90;8.20;;;;;;;20.03;22.89;100060.78;7026193;28;20577;-78
2022/03/21 16:45:17;;;;;;;10.33;7.90;;;;;;;19.90;23.20;100050.06;7025787;28;20351;-79
2022/03/21 16:48:44;;;;;;;12.53;8.30;;;;;;;19.94;22.58;100010.19;7015035;28;20209;-78
2022/03/21 16:52:11;;;;;;;12.90;7.67;;;;;;;20.14;23.12;100062.75;7025373;28;20195;-81